sensor_id;sensor_type;location;lat;lon;timestamp;temperature;humidity
3940;DHT22;1984;48.312;9.244;2022-11-12T00:02:11;3.80;99.90
3940;DHT22;1984;48.312;9.244;2022-11-12T00:04:36;3.70;99.90
3940;DHT22;1984;48.312;9.244;2022-11-12T00:07:02;3.60;99.90
3940;DHT22;1984;48.312;9.244;2022-11-12T00:09:27;3.60;99.90
3940;DHT22;1984;48.312;9.244;2022-11-12T00:11:53;3.50;99.90
3940;DHT22;1984;48.312;9.244;2022-11-12T00:14:18;3.50;99.90
3940;DHT22;1984;48.312;9.244;2022-11-12T00:16:44;3.50;99.90
3940;DHT22;1984;48.312;9.244;2022-11-12T00:19:09;3.40;99.90
3940;DHT22;1984;48.312;9.244;2022-11-12T00:21:35;3.40;99.90
3940;DHT22;1984;48.312;9.244;2022-11-12T00:24:00;3.20;99.90
3940;DHT22;1984;48.312;9.244;2022-11-12T00:26:26;3.20;99.90
3940;DHT22;1984;48.312;9.244;2022-11-12T00:28:51;3.30;99.90
3940;DHT22;1984;48.312;9.244;2022-11-12T00:31:17;3.20;99.90
3940;DHT22;1984;48.312;9.244;2022-11-12T00:33:43;3.20;99.90
3940;DHT22;1984;48.312;9.244;2022-11-12T00:36:10;3.10;99.90
3940;DHT22;1984;48.312;9.244;2022-11-12T00:38:35;3.10;99.90
3940;DHT22;1984;48.312;9.244;2022-11-12T00:41:01;3.10;99.90
3940;DHT22;1984;48.312;9.244;2022-11-12T00:43:27;3.00;99.90
3940;DHT22;1984;48.312;9.244;2022-11-12T00:45:52;3.00;99.90
3940;DHT22;1984;48.312;9.244;2022-11-12T00:48:18;3.00;99.90
3940;DHT22;1984;48.312;9.244;2022-11-12T00:50:44;2.90;99.90
3940;DHT22;1984;48.312;9.244;2022-11-12T00:53:10;2.90;99.90
3940;DHT22;1984;48.312;9.244;2022-11-12T00:55:36;2.90;99.90
3940;DHT22;1984;48.312;9.244;2022-11-12T00:58:01;2.90;99.90
3940;DHT22;1984;48.312;9.244;2022-11-12T01:00:27;2.90;99.90
3940;DHT22;1984;48.312;9.244;2022-11-12T01:02:52;2.90;99.90
3940;DHT22;1984;48.312;9.244;2022-11-12T01:05:18;3.00;99.90
3940;DHT22;1984;48.312;9.244;2022-11-12T01:07:44;3.10;99.90
3940;DHT22;1984;48.312;9.244;2022-11-12T01:10:12;3.20;99.90
3940;DHT22;1984;48.312;9.244;2022-11-12T01:12:37;3.20;99.90
3940;DHT22;1984;48.312;9.244;2022-11-12T01:15:04;3.10;99.90
3940;DHT22;1984;48.312;9.244;2022-11-12T01:17:31;3.10;99.90
3940;DHT22;1984;48.312;9.244;2022-11-12T01:19:56;3.10;99.90
3940;DHT22;1984;48.312;9.244;2022-11-12T01:22:22;3.20;99.90
3940;DHT22;1984;48.312;9.244;2022-11-12T01:24:48;3.30;99.90
3940;DHT22;1984;48.312;9.244;2022-11-12T01:27:14;3.20;99.90
3940;DHT22;1984;48.312;9.244;2022-11-12T01:29:39;3.20;99.90
3940;DHT22;1984;48.312;9.244;2022-11-12T01:32:05;3.20;99.90
3940;DHT22;1984;48.312;9.244;2022-11-12T01:34:31;3.20;99.90
3940;DHT22;1984;48.312;9.244;2022-11-12T01:36:57;3.30;99.90
3940;DHT22;1984;48.312;9.244;2022-11-12T01:39:23;3.20;99.90
3940;DHT22;1984;48.312;9.244;2022-11-12T01:41:48;3.30;99.90
3940;DHT22;1984;48.312;9.244;2022-11-12T01:44:22;3.30;99.90
3940;DHT22;1984;48.312;9.244;2022-11-12T01:47:18;3.20;99.90
3940;DHT22;1984;48.312;9.244;2022-11-12T01:50:03;3.10;99.90
3940;DHT22;1984;48.312;9.244;2022-11-12T01:52:37;3.10;99.90
3940;DHT22;1984;48.312;9.244;2022-11-12T01:55:11;3.10;99.90
3940;DHT22;1984;48.312;9.244;2022-11-12T01:57:44;3.10;99.90
3940;DHT22;1984;48.312;9.244;2022-11-12T02:00:11;3.00;99.90
3940;DHT22;1984;48.312;9.244;2022-11-12T02:02:38;3.00;99.90
3940;DHT22;1984;48.312;9.244;2022-11-12T02:05:09;2.90;99.90
3940;DHT22;1984;48.312;9.244;2022-11-12T02:07:37;2.90;99.90
3940;DHT22;1984;48.312;9.244;2022-11-12T02:10:05;2.80;99.90
3940;DHT22;1984;48.312;9.244;2022-11-12T02:12:32;2.80;99.90
3940;DHT22;1984;48.312;9.244;2022-11-12T02:15:16;2.80;99.90
3940;DHT22;1984;48.312;9.244;2022-11-12T02:17:41;2.70;99.90
3940;DHT22;1984;48.312;9.244;2022-11-12T02:20:12;2.70;99.90
3940;DHT22;1984;48.312;9.244;2022-11-12T02:22:38;2.70;99.90
3940;DHT22;1984;48.312;9.244;2022-11-12T02:25:04;2.60;99.90
3940;DHT22;1984;48.312;9.244;2022-11-12T02:27:30;2.60;99.90
3940;DHT22;1984;48.312;9.244;2022-11-12T02:29:56;2.40;99.90
3940;DHT22;1984;48.312;9.244;2022-11-12T02:32:21;2.30;99.90
3940;DHT22;1984;48.312;9.244;2022-11-12T02:34:47;2.30;99.90
3940;DHT22;1984;48.312;9.244;2022-11-12T02:37:12;2.30;99.90
3940;DHT22;1984;48.312;9.244;2022-11-12T02:39:38;2.30;99.90
3940;DHT22;1984;48.312;9.244;2022-11-12T02:42:03;2.30;99.90
3940;DHT22;1984;48.312;9.244;2022-11-12T02:44:30;2.40;99.90
3940;DHT22;1984;48.312;9.244;2022-11-12T02:46:55;2.30;99.90
3940;DHT22;1984;48.312;9.244;2022-11-12T02:49:21;2.30;99.90
3940;DHT22;1984;48.312;9.244;2022-11-12T02:51:47;2.30;99.90
3940;DHT22;1984;48.312;9.244;2022-11-12T02:54:12;2.40;99.90
3940;DHT22;1984;48.312;9.244;2022-11-12T02:56:38;2.40;99.90
3940;DHT22;1984;48.312;9.244;2022-11-12T02:59:03;2.30;99.90
3940;DHT22;1984;48.312;9.244;2022-11-12T03:01:29;2.30;99.90
3940;DHT22;1984;48.312;9.244;2022-11-12T03:03:54;2.20;99.90
3940;DHT22;1984;48.312;9.244;2022-11-12T03:06:20;2.10;99.90
3940;DHT22;1984;48.312;9.244;2022-11-12T03:08:45;2.10;99.90
3940;DHT22;1984;48.312;9.244;2022-11-12T03:11:13;2.10;99.90
3940;DHT22;1984;48.312;9.244;2022-11-12T03:13:39;2.10;99.90
3940;DHT22;1984;48.312;9.244;2022-11-12T03:16:05;2.10;99.90
3940;DHT22;1984;48.312;9.244;2022-11-12T03:18:32;2.20;99.90
3940;DHT22;1984;48.312;9.244;2022-11-12T03:20:57;2.20;99.90
3940;DHT22;1984;48.312;9.244;2022-11-12T03:23:24;2.30;99.90
3940;DHT22;1984;48.312;9.244;2022-11-12T03:25:50;2.30;99.90
3940;DHT22;1984;48.312;9.244;2022-11-12T03:28:16;2.30;99.90
3940;DHT22;1984;48.312;9.244;2022-11-12T03:30:42;2.10;99.90
3940;DHT22;1984;48.312;9.244;2022-11-12T03:33:10;2.10;99.90
3940;DHT22;1984;48.312;9.244;2022-11-12T03:35:36;2.10;99.90
3940;DHT22;1984;48.312;9.244;2022-11-12T03:38:03;2.10;99.90
3940;DHT22;1984;48.312;9.244;2022-11-12T03:40:30;2.10;99.90
3940;DHT22;1984;48.312;9.244;2022-11-12T03:42:55;2.10;99.90
3940;DHT22;1984;48.312;9.244;2022-11-12T03:45:23;2.10;99.90
3940;DHT22;1984;48.312;9.244;2022-11-12T03:47:51;2.10;99.90
3940;DHT22;1984;48.312;9.244;2022-11-12T03:50:18;2.20;99.90
3940;DHT22;1984;48.312;9.244;2022-11-12T03:52:45;2.20;99.90
3940;DHT22;1984;48.312;9.244;2022-11-12T03:55:12;2.20;99.90
3940;DHT22;1984;48.312;9.244;2022-11-12T03:57:38;2.20;99.90
3940;DHT22;1984;48.312;9.244;2022-11-12T04:00:05;2.30;99.90
3940;DHT22;1984;48.312;9.244;2022-11-12T04:02:31;2.30;99.90
3940;DHT22;1984;48.312;9.244;2022-11-12T04:04:57;2.40;99.90
3940;DHT22;1984;48.312;9.244;2022-11-12T04:07:41;2.40;99.90
3940;DHT22;1984;48.312;9.244;2022-11-12T04:10:25;2.40;99.90
3940;DHT22;1984;48.312;9.244;2022-11-12T04:12:50;2.40;99.90
3940;DHT22;1984;48.312;9.244;2022-11-12T04:15:35;2.50;99.90
3940;DHT22;1984;48.312;9.244;2022-11-12T04:18:01;2.50;99.90
3940;DHT22;1984;48.312;9.244;2022-11-12T04:20:45;2.50;99.90
3940;DHT22;1984;48.312;9.244;2022-11-12T04:23:29;2.50;99.90
3940;DHT22;1984;48.312;9.244;2022-11-12T04:25:54;2.50;99.90
3940;DHT22;1984;48.312;9.244;2022-11-12T04:28:38;2.60;99.90
3940;DHT22;1984;48.312;9.244;2022-11-12T04:31:04;2.60;99.90
3940;DHT22;1984;48.312;9.244;2022-11-12T04:33:29;2.60;99.90
3940;DHT22;1984;48.312;9.244;2022-11-12T04:35:55;2.60;99.90
3940;DHT22;1984;48.312;9.244;2022-11-12T04:38:20;2.60;99.90
3940;DHT22;1984;48.312;9.244;2022-11-12T04:40:47;2.60;99.90
3940;DHT22;1984;48.312;9.244;2022-11-12T04:43:31;2.60;99.90
3940;DHT22;1984;48.312;9.244;2022-11-12T04:46:15;2.60;99.90
3940;DHT22;1984;48.312;9.244;2022-11-12T04:48:40;2.60;99.90
3940;DHT22;1984;48.312;9.244;2022-11-12T04:51:06;2.60;99.90
3940;DHT22;1984;48.312;9.244;2022-11-12T04:53:51;2.70;99.90
3940;DHT22;1984;48.312;9.244;2022-11-12T04:56:17;2.60;99.90
3940;DHT22;1984;48.312;9.244;2022-11-12T04:58:43;2.60;99.90
3940;DHT22;1984;48.312;9.244;2022-11-12T05:01:08;2.50;99.90
3940;DHT22;1984;48.312;9.244;2022-11-12T05:03:34;2.50;99.90
3940;DHT22;1984;48.312;9.244;2022-11-12T05:06:04;2.50;99.90
3940;DHT22;1984;48.312;9.244;2022-11-12T05:08:53;2.50;99.90
3940;DHT22;1984;48.312;9.244;2022-11-12T05:11:19;2.50;99.90
3940;DHT22;1984;48.312;9.244;2022-11-12T05:13:44;2.60;99.90
3940;DHT22;1984;48.312;9.244;2022-11-12T05:16:10;2.60;99.90
3940;DHT22;1984;48.312;9.244;2022-11-12T05:18:35;2.60;99.90
3940;DHT22;1984;48.312;9.244;2022-11-12T05:21:01;2.60;99.90
3940;DHT22;1984;48.312;9.244;2022-11-12T05:23:46;2.70;99.90
3940;DHT22;1984;48.312;9.244;2022-11-12T05:26:12;2.70;99.90
3940;DHT22;1984;48.312;9.244;2022-11-12T05:28:37;2.70;99.90
3940;DHT22;1984;48.312;9.244;2022-11-12T05:31:03;2.70;99.90
3940;DHT22;1984;48.312;9.244;2022-11-12T05:33:29;2.60;99.90
3940;DHT22;1984;48.312;9.244;2022-11-12T05:35:57;2.70;99.90
3940;DHT22;1984;48.312;9.244;2022-11-12T05:38:23;2.70;99.90
3940;DHT22;1984;48.312;9.244;2022-11-12T05:40:48;2.60;99.90
3940;DHT22;1984;48.312;9.244;2022-11-12T05:43:14;2.60;99.90
3940;DHT22;1984;48.312;9.244;2022-11-12T05:45:42;2.50;99.90
3940;DHT22;1984;48.312;9.244;2022-11-12T05:48:07;2.50;99.90
3940;DHT22;1984;48.312;9.244;2022-11-12T05:50:33;2.50;99.90
3940;DHT22;1984;48.312;9.244;2022-11-12T05:52:58;2.50;99.90
3940;DHT22;1984;48.312;9.244;2022-11-12T05:55:24;2.50;99.90
3940;DHT22;1984;48.312;9.244;2022-11-12T05:57:49;2.50;99.90
3940;DHT22;1984;48.312;9.244;2022-11-12T06:00:15;2.50;99.90
3940;DHT22;1984;48.312;9.244;2022-11-12T06:02:41;2.50;99.90
3940;DHT22;1984;48.312;9.244;2022-11-12T06:05:07;2.40;99.90
3940;DHT22;1984;48.312;9.244;2022-11-12T06:07:33;2.50;99.90
3940;DHT22;1984;48.312;9.244;2022-11-12T06:09:58;2.50;99.90
3940;DHT22;1984;48.312;9.244;2022-11-12T06:12:24;2.40;99.90
3940;DHT22;1984;48.312;9.244;2022-11-12T06:14:49;2.40;99.90
3940;DHT22;1984;48.312;9.244;2022-11-12T06:17:15;2.40;99.90
3940;DHT22;1984;48.312;9.244;2022-11-12T06:19:41;2.40;99.90
3940;DHT22;1984;48.312;9.244;2022-11-12T06:22:06;2.20;99.90
3940;DHT22;1984;48.312;9.244;2022-11-12T06:24:32;2.20;99.90
3940;DHT22;1984;48.312;9.244;2022-11-12T06:26:57;2.30;99.90
3940;DHT22;1984;48.312;9.244;2022-11-12T06:29:23;2.30;99.90
3940;DHT22;1984;48.312;9.244;2022-11-12T06:31:48;2.30;99.90
3940;DHT22;1984;48.312;9.244;2022-11-12T06:34:14;2.40;99.90
3940;DHT22;1984;48.312;9.244;2022-11-12T06:36:39;2.40;99.90
3940;DHT22;1984;48.312;9.244;2022-11-12T06:39:05;2.30;99.90
3940;DHT22;1984;48.312;9.244;2022-11-12T06:41:30;2.40;99.90
3940;DHT22;1984;48.312;9.244;2022-11-12T06:43:56;2.40;99.90
3940;DHT22;1984;48.312;9.244;2022-11-12T06:46:21;2.40;99.90
3940;DHT22;1984;48.312;9.244;2022-11-12T06:48:47;2.50;99.90
3940;DHT22;1984;48.312;9.244;2022-11-12T06:51:18;2.60;99.90
3940;DHT22;1984;48.312;9.244;2022-11-12T06:53:44;2.70;99.90
3940;DHT22;1984;48.312;9.244;2022-11-12T06:56:10;2.70;99.90
3940;DHT22;1984;48.312;9.244;2022-11-12T06:58:36;2.70;99.90
3940;DHT22;1984;48.312;9.244;2022-11-12T07:01:06;2.80;99.90
3940;DHT22;1984;48.312;9.244;2022-11-12T07:03:32;2.80;99.90
3940;DHT22;1984;48.312;9.244;2022-11-12T07:06:03;2.90;99.90
3940;DHT22;1984;48.312;9.244;2022-11-12T07:08:29;2.80;99.90
3940;DHT22;1984;48.312;9.244;2022-11-12T07:10:55;2.80;99.90
3940;DHT22;1984;48.312;9.244;2022-11-12T07:13:21;2.90;99.90
3940;DHT22;1984;48.312;9.244;2022-11-12T07:15:47;3.00;99.90
3940;DHT22;1984;48.312;9.244;2022-11-12T07:18:12;3.10;99.90
3940;DHT22;1984;48.312;9.244;2022-11-12T07:20:38;3.10;99.90
3940;DHT22;1984;48.312;9.244;2022-11-12T07:23:03;3.30;99.90
3940;DHT22;1984;48.312;9.244;2022-11-12T07:25:29;3.50;99.90
3940;DHT22;1984;48.312;9.244;2022-11-12T07:27:54;3.70;99.90
3940;DHT22;1984;48.312;9.244;2022-11-12T07:30:20;3.90;99.90
3940;DHT22;1984;48.312;9.244;2022-11-12T07:32:46;4.00;99.90
3940;DHT22;1984;48.312;9.244;2022-11-12T07:35:11;4.10;99.90
3940;DHT22;1984;48.312;9.244;2022-11-12T07:37:37;4.40;99.90
3940;DHT22;1984;48.312;9.244;2022-11-12T07:40:03;4.70;99.90
3940;DHT22;1984;48.312;9.244;2022-11-12T07:42:32;5.10;99.90
3940;DHT22;1984;48.312;9.244;2022-11-12T07:44:57;5.40;99.90
3940;DHT22;1984;48.312;9.244;2022-11-12T07:47:23;5.30;99.90
3940;DHT22;1984;48.312;9.244;2022-11-12T07:49:48;5.10;99.90
3940;DHT22;1984;48.312;9.244;2022-11-12T07:52:14;4.90;99.90
3940;DHT22;1984;48.312;9.244;2022-11-12T07:54:39;4.70;99.90
3940;DHT22;1984;48.312;9.244;2022-11-12T07:57:05;4.70;99.90
3940;DHT22;1984;48.312;9.244;2022-11-12T07:59:30;4.60;99.90
3940;DHT22;1984;48.312;9.244;2022-11-12T08:01:56;4.50;99.90
3940;DHT22;1984;48.312;9.244;2022-11-12T08:04:21;4.60;99.90
3940;DHT22;1984;48.312;9.244;2022-11-12T08:06:47;4.80;99.90
3940;DHT22;1984;48.312;9.244;2022-11-12T08:09:13;5.10;99.90
3940;DHT22;1984;48.312;9.244;2022-11-12T08:11:39;5.50;99.90
3940;DHT22;1984;48.312;9.244;2022-11-12T08:14:06;5.90;99.90
3940;DHT22;1984;48.312;9.244;2022-11-12T08:16:31;6.20;99.90
3940;DHT22;1984;48.312;9.244;2022-11-12T08:18:57;6.70;99.90
3940;DHT22;1984;48.312;9.244;2022-11-12T08:21:23;7.20;99.90
3940;DHT22;1984;48.312;9.244;2022-11-12T08:23:48;7.80;99.90
3940;DHT22;1984;48.312;9.244;2022-11-12T08:26:16;8.90;99.90
3940;DHT22;1984;48.312;9.244;2022-11-12T08:28:42;10.30;99.90
3940;DHT22;1984;48.312;9.244;2022-11-12T08:31:10;11.40;99.90
3940;DHT22;1984;48.312;9.244;2022-11-12T08:33:36;12.00;99.90
3940;DHT22;1984;48.312;9.244;2022-11-12T08:36:07;12.50;99.90
3940;DHT22;1984;48.312;9.244;2022-11-12T08:38:33;12.90;99.90
3940;DHT22;1984;48.312;9.244;2022-11-12T08:41:03;12.90;99.90
3940;DHT22;1984;48.312;9.244;2022-11-12T08:43:29;13.10;99.90
3940;DHT22;1984;48.312;9.244;2022-11-12T08:45:57;13.60;99.90
3940;DHT22;1984;48.312;9.244;2022-11-12T08:48:23;14.20;99.90
3940;DHT22;1984;48.312;9.244;2022-11-12T08:50:49;14.50;99.90
3940;DHT22;1984;48.312;9.244;2022-11-12T08:53:14;14.90;99.90
3940;DHT22;1984;48.312;9.244;2022-11-12T08:55:40;15.40;99.90
3940;DHT22;1984;48.312;9.244;2022-11-12T08:58:06;16.00;99.90
3940;DHT22;1984;48.312;9.244;2022-11-12T09:00:33;16.40;99.90
3940;DHT22;1984;48.312;9.244;2022-11-12T09:03:00;16.70;99.90
3940;DHT22;1984;48.312;9.244;2022-11-12T09:05:26;17.00;99.90
3940;DHT22;1984;48.312;9.244;2022-11-12T09:08:06;17.20;99.90
3940;DHT22;1984;48.312;9.244;2022-11-12T09:10:32;17.10;99.90
3940;DHT22;1984;48.312;9.244;2022-11-12T09:12:58;16.80;99.90
3940;DHT22;1984;48.312;9.244;2022-11-12T09:15:24;16.80;99.90
3940;DHT22;1984;48.312;9.244;2022-11-12T09:17:58;16.90;99.90
3940;DHT22;1984;48.312;9.244;2022-11-12T09:20:24;17.10;99.90
3940;DHT22;1984;48.312;9.244;2022-11-12T09:22:51;17.10;99.90
3940;DHT22;1984;48.312;9.244;2022-11-12T09:25:17;17.20;99.90
3940;DHT22;1984;48.312;9.244;2022-11-12T09:27:42;17.50;99.90
3940;DHT22;1984;48.312;9.244;2022-11-12T09:30:08;18.00;99.90
3940;DHT22;1984;48.312;9.244;2022-11-12T09:32:34;18.50;99.90
3940;DHT22;1984;48.312;9.244;2022-11-12T09:34:59;19.10;99.90
3940;DHT22;1984;48.312;9.244;2022-11-12T09:37:25;19.30;99.80
3940;DHT22;1984;48.312;9.244;2022-11-12T09:39:50;19.50;99.90
3940;DHT22;1984;48.312;9.244;2022-11-12T09:42:19;19.80;99.70
3940;DHT22;1984;48.312;9.244;2022-11-12T09:44:58;20.10;99.40
3940;DHT22;1984;48.312;9.244;2022-11-12T09:47:29;20.50;98.90
3940;DHT22;1984;48.312;9.244;2022-11-12T09:50:07;20.90;97.90
3940;DHT22;1984;48.312;9.244;2022-11-12T09:52:36;21.20;97.20
3940;DHT22;1984;48.312;9.244;2022-11-12T09:55:06;21.10;97.70
3940;DHT22;1984;48.312;9.244;2022-11-12T09:57:34;20.90;97.70
3940;DHT22;1984;48.312;9.244;2022-11-12T09:59:59;20.70;98.00
3940;DHT22;1984;48.312;9.244;2022-11-12T10:10:15;20.80;98.10
3940;DHT22;1984;48.312;9.244;2022-11-12T10:23:57;19.80;99.90
3940;DHT22;1984;48.312;9.244;2022-11-12T10:26:24;19.80;99.90
3940;DHT22;1984;48.312;9.244;2022-11-12T10:31:43;19.70;99.90
3940;DHT22;1984;48.312;9.244;2022-11-12T10:34:20;19.40;99.90
3940;DHT22;1984;48.312;9.244;2022-11-12T10:36:55;19.30;99.90
3940;DHT22;1984;48.312;9.244;2022-11-12T10:39:53;19.30;99.90
3940;DHT22;1984;48.312;9.244;2022-11-12T10:42:21;19.00;99.90
3940;DHT22;1984;48.312;9.244;2022-11-12T10:44:47;18.70;99.90
3940;DHT22;1984;48.312;9.244;2022-11-12T10:47:34;18.50;99.90
3940;DHT22;1984;48.312;9.244;2022-11-12T10:56:01;16.90;99.90
3940;DHT22;1984;48.312;9.244;2022-11-12T10:58:27;16.70;99.90
3940;DHT22;1984;48.312;9.244;2022-11-12T11:03:26;16.50;99.90
3940;DHT22;1984;48.312;9.244;2022-11-12T11:05:53;16.50;99.90
3940;DHT22;1984;48.312;9.244;2022-11-12T11:11:47;16.50;99.90
3940;DHT22;1984;48.312;9.244;2022-11-12T11:14:23;16.50;99.90
3940;DHT22;1984;48.312;9.244;2022-11-12T11:16:57;16.60;99.90
3940;DHT22;1984;48.312;9.244;2022-11-12T11:19:31;16.50;99.90
3940;DHT22;1984;48.312;9.244;2022-11-12T11:22:13;16.30;99.90
3940;DHT22;1984;48.312;9.244;2022-11-12T11:30:23;15.90;99.90
3940;DHT22;1984;48.312;9.244;2022-11-12T11:35:49;15.70;99.90
3940;DHT22;1984;48.312;9.244;2022-11-12T11:38:41;15.90;99.90
3940;DHT22;1984;48.312;9.244;2022-11-12T11:46:57;15.90;99.90
3940;DHT22;1984;48.312;9.244;2022-11-12T12:00:19;15.10;99.90
3940;DHT22;1984;48.312;9.244;2022-11-12T12:08:43;15.00;99.90
3940;DHT22;1984;48.312;9.244;2022-11-12T12:11:33;15.00;99.90
3940;DHT22;1984;48.312;9.244;2022-11-12T12:16:49;15.00;99.90
3940;DHT22;1984;48.312;9.244;2022-11-12T12:21:49;14.70;99.90
3940;DHT22;1984;48.312;9.244;2022-11-12T12:24:44;14.60;99.90
3940;DHT22;1984;48.312;9.244;2022-11-12T12:27:29;14.50;99.90
3940;DHT22;1984;48.312;9.244;2022-11-12T12:30:16;14.40;99.90
3940;DHT22;1984;48.312;9.244;2022-11-12T12:32:48;14.50;99.90
3940;DHT22;1984;48.312;9.244;2022-11-12T12:38:31;14.50;99.90
3940;DHT22;1984;48.312;9.244;2022-11-12T12:41:14;14.60;99.90
3940;DHT22;1984;48.312;9.244;2022-11-12T12:43:47;14.60;99.90
3940;DHT22;1984;48.312;9.244;2022-11-12T12:46:16;14.70;99.90
3940;DHT22;1984;48.312;9.244;2022-11-12T12:48:45;14.70;99.90
3940;DHT22;1984;48.312;9.244;2022-11-12T12:51:11;14.70;99.90
3940;DHT22;1984;48.312;9.244;2022-11-12T12:53:37;14.60;99.90
3940;DHT22;1984;48.312;9.244;2022-11-12T12:58:48;14.50;99.90
3940;DHT22;1984;48.312;9.244;2022-11-12T13:04:05;14.30;99.90
3940;DHT22;1984;48.312;9.244;2022-11-12T13:06:50;14.20;99.90
3940;DHT22;1984;48.312;9.244;2022-11-12T13:32:56;13.50;99.90
3940;DHT22;1984;48.312;9.244;2022-11-12T13:35:33;13.40;99.90
3940;DHT22;1984;48.312;9.244;2022-11-12T13:41:04;13.10;99.90
3940;DHT22;1984;48.312;9.244;2022-11-12T13:43:42;12.80;99.90
3940;DHT22;1984;48.312;9.244;2022-11-12T13:48:47;12.50;99.90
3940;DHT22;1984;48.312;9.244;2022-11-12T13:54:29;12.00;99.90
3940;DHT22;1984;48.312;9.244;2022-11-12T13:56:55;11.80;99.90
3940;DHT22;1984;48.312;9.244;2022-11-12T13:59:23;11.50;99.90
3940;DHT22;1984;48.312;9.244;2022-11-12T14:01:49;11.40;99.90
3940;DHT22;1984;48.312;9.244;2022-11-12T14:04:17;11.40;99.90
3940;DHT22;1984;48.312;9.244;2022-11-12T14:06:52;11.50;99.90
3940;DHT22;1984;48.312;9.244;2022-11-12T14:09:53;11.30;99.90
3940;DHT22;1984;48.312;9.244;2022-11-12T14:12:40;11.20;99.90
3940;DHT22;1984;48.312;9.244;2022-11-12T14:18:16;10.90;99.90
3940;DHT22;1984;48.312;9.244;2022-11-12T14:20:44;10.80;99.90
3940;DHT22;1984;48.312;9.244;2022-11-12T14:23:18;10.60;99.90
3940;DHT22;1984;48.312;9.244;2022-11-12T14:25:48;10.50;99.90
3940;DHT22;1984;48.312;9.244;2022-11-12T14:28:34;10.40;99.90
3940;DHT22;1984;48.312;9.244;2022-11-12T14:31:01;10.40;99.90
3940;DHT22;1984;48.312;9.244;2022-11-12T14:33:29;10.50;99.90
3940;DHT22;1984;48.312;9.244;2022-11-12T14:36:09;10.50;99.90
3940;DHT22;1984;48.312;9.244;2022-11-12T14:38:49;10.50;99.90
3940;DHT22;1984;48.312;9.244;2022-11-12T14:41:21;10.50;99.90
3940;DHT22;1984;48.312;9.244;2022-11-12T14:43:52;10.40;99.90
3940;DHT22;1984;48.312;9.244;2022-11-12T14:46:27;10.20;99.90
3940;DHT22;1984;48.312;9.244;2022-11-12T14:51:52;10.10;99.90
3940;DHT22;1984;48.312;9.244;2022-11-12T14:54:30;10.10;99.90
3940;DHT22;1984;48.312;9.244;2022-11-12T14:57:00;9.90;99.90
3940;DHT22;1984;48.312;9.244;2022-11-12T14:59:27;9.80;99.90
3940;DHT22;1984;48.312;9.244;2022-11-12T15:02:08;9.60;99.90
3940;DHT22;1984;48.312;9.244;2022-11-12T15:05:29;9.50;99.90
3940;DHT22;1984;48.312;9.244;2022-11-12T15:07:57;9.50;99.90
3940;DHT22;1984;48.312;9.244;2022-11-12T15:10:40;9.50;99.90
3940;DHT22;1984;48.312;9.244;2022-11-12T15:13:12;9.50;99.90
3940;DHT22;1984;48.312;9.244;2022-11-12T15:18:25;9.50;99.90
3940;DHT22;1984;48.312;9.244;2022-11-12T15:23:44;9.20;99.90
3940;DHT22;1984;48.312;9.244;2022-11-12T15:26:15;9.10;99.90
3940;DHT22;1984;48.312;9.244;2022-11-12T15:29:20;9.00;99.90
3940;DHT22;1984;48.312;9.244;2022-11-12T15:32:00;8.90;99.90
3940;DHT22;1984;48.312;9.244;2022-11-12T15:34:31;8.80;99.90
3940;DHT22;1984;48.312;9.244;2022-11-12T15:37:39;8.60;99.90
3940;DHT22;1984;48.312;9.244;2022-11-12T15:39:57;8.60;99.90
3940;DHT22;1984;48.312;9.244;2022-11-12T15:42:33;8.50;99.90
3940;DHT22;1984;48.312;9.244;2022-11-12T15:45:03;8.50;99.90
3940;DHT22;1984;48.312;9.244;2022-11-12T15:47:29;8.50;99.90
3940;DHT22;1984;48.312;9.244;2022-11-12T15:49:56;8.40;99.90
3940;DHT22;1984;48.312;9.244;2022-11-12T15:52:25;8.30;99.90
3940;DHT22;1984;48.312;9.244;2022-11-12T15:54:51;8.20;99.90
3940;DHT22;1984;48.312;9.244;2022-11-12T15:57:28;8.20;99.90
3940;DHT22;1984;48.312;9.244;2022-11-12T16:00:01;8.20;99.90
3940;DHT22;1984;48.312;9.244;2022-11-12T16:02:28;8.20;99.90
3940;DHT22;1984;48.312;9.244;2022-11-12T16:04:54;8.30;99.90
3940;DHT22;1984;48.312;9.244;2022-11-12T16:07:19;8.30;99.90
3940;DHT22;1984;48.312;9.244;2022-11-12T16:09:45;8.30;99.90
3940;DHT22;1984;48.312;9.244;2022-11-12T16:12:11;8.20;99.90
3940;DHT22;1984;48.312;9.244;2022-11-12T16:14:38;8.10;99.90
3940;DHT22;1984;48.312;9.244;2022-11-12T16:17:05;7.90;99.90
3940;DHT22;1984;48.312;9.244;2022-11-12T16:19:30;7.90;99.90
3940;DHT22;1984;48.312;9.244;2022-11-12T16:22:01;7.90;99.90
3940;DHT22;1984;48.312;9.244;2022-11-12T16:24:27;7.90;99.90
3940;DHT22;1984;48.312;9.244;2022-11-12T16:26:53;7.80;99.90
3940;DHT22;1984;48.312;9.244;2022-11-12T16:29:18;7.80;99.90
3940;DHT22;1984;48.312;9.244;2022-11-12T16:31:44;7.70;99.90
3940;DHT22;1984;48.312;9.244;2022-11-12T16:34:10;7.60;99.90
3940;DHT22;1984;48.312;9.244;2022-11-12T16:36:37;7.60;99.90
3940;DHT22;1984;48.312;9.244;2022-11-12T16:39:03;7.60;99.90
3940;DHT22;1984;48.312;9.244;2022-11-12T16:41:29;7.60;99.90
3940;DHT22;1984;48.312;9.244;2022-11-12T16:43:54;7.40;99.90
3940;DHT22;1984;48.312;9.244;2022-11-12T16:46:24;7.20;99.90
3940;DHT22;1984;48.312;9.244;2022-11-12T16:48:52;7.10;99.90
3940;DHT22;1984;48.312;9.244;2022-11-12T16:51:19;7.10;99.90
3940;DHT22;1984;48.312;9.244;2022-11-12T16:53:45;7.10;99.90
3940;DHT22;1984;48.312;9.244;2022-11-12T16:56:13;7.10;99.90
3940;DHT22;1984;48.312;9.244;2022-11-12T16:58:39;7.10;99.90
3940;DHT22;1984;48.312;9.244;2022-11-12T17:01:05;7.10;99.90
3940;DHT22;1984;48.312;9.244;2022-11-12T17:03:31;7.10;99.90
3940;DHT22;1984;48.312;9.244;2022-11-12T17:05:57;7.00;99.90
3940;DHT22;1984;48.312;9.244;2022-11-12T17:08:23;6.90;99.90
3940;DHT22;1984;48.312;9.244;2022-11-12T17:10:48;6.80;99.90
3940;DHT22;1984;48.312;9.244;2022-11-12T17:13:14;6.70;99.90
3940;DHT22;1984;48.312;9.244;2022-11-12T17:15:39;6.60;99.90
3940;DHT22;1984;48.312;9.244;2022-11-12T17:18:05;6.60;99.90
3940;DHT22;1984;48.312;9.244;2022-11-12T17:20:32;6.70;99.90
3940;DHT22;1984;48.312;9.244;2022-11-12T17:22:58;6.60;99.90
3940;DHT22;1984;48.312;9.244;2022-11-12T17:25:23;6.70;99.90
3940;DHT22;1984;48.312;9.244;2022-11-12T17:27:49;6.70;99.90
3940;DHT22;1984;48.312;9.244;2022-11-12T17:30:15;6.70;99.90
3940;DHT22;1984;48.312;9.244;2022-11-12T17:32:40;6.70;99.90
3940;DHT22;1984;48.312;9.244;2022-11-12T17:35:06;6.70;99.90
3940;DHT22;1984;48.312;9.244;2022-11-12T17:37:32;6.70;99.90
3940;DHT22;1984;48.312;9.244;2022-11-12T17:39:57;6.70;99.90
3940;DHT22;1984;48.312;9.244;2022-11-12T17:42:23;6.60;99.90
3940;DHT22;1984;48.312;9.244;2022-11-12T17:44:48;6.60;99.90
3940;DHT22;1984;48.312;9.244;2022-11-12T17:47:14;6.40;99.90
3940;DHT22;1984;48.312;9.244;2022-11-12T17:49:39;6.30;99.90
3940;DHT22;1984;48.312;9.244;2022-11-12T17:52:05;6.30;99.90
3940;DHT22;1984;48.312;9.244;2022-11-12T17:54:30;6.30;99.90
3940;DHT22;1984;48.312;9.244;2022-11-12T17:56:56;6.30;99.90
3940;DHT22;1984;48.312;9.244;2022-11-12T17:59:21;6.30;99.90
3940;DHT22;1984;48.312;9.244;2022-11-12T18:01:47;6.20;99.90
3940;DHT22;1984;48.312;9.244;2022-11-12T18:04:12;6.20;99.90
3940;DHT22;1984;48.312;9.244;2022-11-12T18:06:38;6.20;99.90
3940;DHT22;1984;48.312;9.244;2022-11-12T18:09:06;6.10;99.90
3940;DHT22;1984;48.312;9.244;2022-11-12T18:11:44;6.00;99.90
3940;DHT22;1984;48.312;9.244;2022-11-12T18:14:10;5.90;99.90
3940;DHT22;1984;48.312;9.244;2022-11-12T18:16:36;5.80;99.90
3940;DHT22;1984;48.312;9.244;2022-11-12T18:19:01;5.70;99.90
3940;DHT22;1984;48.312;9.244;2022-11-12T18:21:27;5.70;99.90
3940;DHT22;1984;48.312;9.244;2022-11-12T18:23:53;5.60;99.90
3940;DHT22;1984;48.312;9.244;2022-11-12T18:26:19;5.60;99.90
3940;DHT22;1984;48.312;9.244;2022-11-12T18:28:55;5.50;99.90